Pintail — WDF5177 — position and weather

sailwx.info

Track history (hours):
 
Tides and Currents Weather Stations Pressure Air Temp Water Temp Dewpoint Dewpoint Depression Visibility Wind Speed Wind Dir Waves Ship Positions

Pintail

Owner: Pintail Marine Services, Inc, Friday Harbor, WA. More information available from US FCC via Universal Licensing System and Coast Guard Vessel Documentation Center.

Last reported at 2016-Dec-07 09:32 UTC. Time now 2016-Dec-07 10:34 UTC.
Position N 48°32' W 122°60'.

Length 19 m.

Type: Towing. MMSI: 367460260.

Date/timePositionNaut miles runAvg speedWind from/ knotsBaromVisibWave heightAir tempDewpointWater temp
2016-Dec-07 09:32N 48°32' W 122°60'0 0.0
2016-Dec-07 08:29N 48°32' W 122°60'0 0.0
2016-Dec-07 07:32N 48°32' W 122°60'0 0.0
2016-Dec-07 06:32N 48°32' W 122°60'0 0.0
2016-Dec-07 05:32N 48°32' W 122°60'0 0.0
2016-Dec-07 04:32N 48°32' W 122°60'0 0.0
2016-Dec-07 03:32N 48°32' W 122°60'0 0.0
2016-Dec-07 02:32N 48°32' W 122°60'0 0.0
2016-Dec-07 01:32N 48°32' W 122°60'0 0.0
2016-Dec-07 00:29N 48°32' W 122°60'0 0.0
2016-Dec-06 23:32N 48°32' W 122°60'0 0.0
2016-Dec-06 22:29N 48°32' W 122°60'0 0.0
2016-Dec-06 21:29N 48°32' W 122°60'0 0.0
2016-Dec-06 20:11N 48°32' W 122°60'0 0.0
2016-Dec-06 18:33N 48°32' W 122°60'16 0.7
2016-Dec-05 19:33N 48°31' W 122°36'0 0.0
2016-Dec-05 18:29N 48°31' W 122°36'  
2016-Dec-01 19:24N 48°32' W 122°42'4 4.4
2016-Dec-01 18:28N 48°31' W 122°36'16 3.2
2016-Dec-01 13:33N 48°32' W 122°60'0 0.0
2016-Dec-01 12:33N 48°32' W 122°60'0 0.0
2016-Dec-01 11:33N 48°32' W 122°60'0 0.0
2016-Dec-01 10:33N 48°32' W 122°60'0 0.0
2016-Dec-01 09:33N 48°32' W 122°60'0 0.0
2016-Dec-01 08:30N 48°32' W 122°60'0 0.0
2016-Dec-01 07:33N 48°32' W 122°60'0 0.0
2016-Dec-01 06:30N 48°32' W 122°60'0 0.0
2016-Dec-01 05:30N 48°32' W 122°60'0 0.0
2016-Dec-01 04:30N 48°32' W 122°60'0 0.0
2016-Dec-01 03:33N 48°32' W 122°60'0 0.0
2016-Dec-01 02:33N 48°32' W 122°60'0 0.0
2016-Dec-01 01:30N 48°32' W 122°60'0 0.0
2016-Dec-01 00:33N 48°32' W 122°60'0 0.0
2016-Nov-30 23:33N 48°32' W 122°60'0 0.0
2016-Nov-30 22:33N 48°32' W 122°60'0 0.0
2016-Nov-30 21:30N 48°32' W 122°60'0 0.0
2016-Nov-30 20:30N 48°32' W 122°60'0 0.0
2016-Nov-30 19:30N 48°32' W 122°60'0 0.0
2016-Nov-30 18:27N 48°32' W 122°60'0 0.0
2016-Nov-30 17:33N 48°32' W 122°60'0 0.0
2016-Nov-30 16:33N 48°32' W 122°60'0 0.0
2016-Nov-30 15:33N 48°32' W 122°60'0 0.0
2016-Nov-30 14:33N 48°32' W 122°60'0 0.0
2016-Nov-30 13:33N 48°32' W 122°60'0 0.0
2016-Nov-30 12:30N 48°32' W 122°60'0 0.0
2016-Nov-30 11:24N 48°32' W 122°60'0 0.0
2016-Nov-30 10:33N 48°32' W 122°60'0 0.0
2016-Nov-30 09:33N 48°32' W 122°60'0 0.0
2016-Nov-30 08:33N 48°32' W 122°60'0 0.0
2016-Nov-30 07:30N 48°32' W 122°60'0 0.0
2016-Nov-30 06:33N 48°32' W 122°60'0 0.0
2016-Nov-30 05:33N 48°32' W 122°60'0 0.0
2016-Nov-30 04:33N 48°32' W 122°60'0 0.0
2016-Nov-30 03:33N 48°32' W 122°60'0 0.0
2016-Nov-30 02:33N 48°32' W 122°60'0 0.0
2016-Nov-30 01:33N 48°32' W 122°60'0 0.0
2016-Nov-30 00:33N 48°32' W 122°60'0 0.0
2016-Nov-29 23:33N 48°32' W 122°60'0 0.1
2016-Nov-29 22:33N 48°32' W 122°60'5 1.3
2016-Nov-29 18:30N 48°34' W 122°53'6 6.2
2016-Nov-29 17:31N 48°32' W 122°44'5 5.4
2016-Nov-29 16:33N 48°31' W 122°36'0 0.0
2016-Nov-29 15:31N 48°31' W 122°36'0 0.1
2016-Nov-29 14:30N 48°31' W 122°36'0 0.0
2016-Nov-29 13:30N 48°31' W 122°36'0 0.0
2016-Nov-29 12:30N 48°31' W 122°36'0 0.0
2016-Nov-29 11:30N 48°31' W 122°36'0 0.0
2016-Nov-29 10:30N 48°31' W 122°36'0 0.0
2016-Nov-29 09:30N 48°31' W 122°36'0 0.0
2016-Nov-29 08:30N 48°31' W 122°36'0 0.0
2016-Nov-29 07:30N 48°31' W 122°36'0 0.0
2016-Nov-29 06:30N 48°31' W 122°36'0 0.0
2016-Nov-29 05:33N 48°31' W 122°36'0 0.0
2016-Nov-29 04:30N 48°31' W 122°36'0 0.0
2016-Nov-29 03:30N 48°31' W 122°36'0 0.0
2016-Nov-29 02:30N 48°31' W 122°36'0 0.0
2016-Nov-29 01:30N 48°31' W 122°36'10 3.3
2016-Nov-28 22:26N 48°33' W 122°52'5 5.4
2016-Nov-28 21:33N 48°32' W 122°59'0 0.4
2016-Nov-28 20:33N 48°32' W 122°58'5 5.2
2016-Nov-28 19:33N 48°33' W 122°50'7 6.3
2016-Nov-28 18:22N 48°32' W 122°39'1 1.8
2016-Nov-28 17:33N 48°31' W 122°37'6 5.9
2016-Nov-28 16:31N 48°32' W 122°46'6 5.8
2016-Nov-28 15:32N 48°34' W 122°54'4 4.4
2016-Nov-28 14:33N 48°32' W 122°60'0 0.0
2016-Nov-28 13:33N 48°32' W 122°60'0 0.0
2016-Nov-28 12:30N 48°32' W 122°60'0 0.0
2016-Nov-28 11:33N 48°32' W 122°60'0 0.0
2016-Nov-28 10:33N 48°32' W 122°60'0 0.0
2016-Nov-28 09:33N 48°32' W 122°60'0 0.0
2016-Nov-28 08:30N 48°32' W 122°60'0 0.0
2016-Nov-28 07:33N 48°32' W 122°60'0 0.0
2016-Nov-28 06:31N 48°32' W 122°60'0 0.0
2016-Nov-28 05:34N 48°32' W 122°60'0 0.0
2016-Nov-28 04:31N 48°32' W 122°60'0 0.0
2016-Nov-28 03:31N 48°32' W 122°60'0 0.0
2016-Nov-28 02:28N 48°32' W 122°60'0 0.0
2016-Nov-28 01:33N 48°32' W 122°60'0 0.0
2016-Nov-28 00:33N 48°32' W 122°60'0 0.0
2016-Nov-27 23:33N 48°32' W 122°60'0 0.0
2016-Nov-27 22:30N 48°32' W 122°60'0 0.0
2016-Nov-27 21:33N 48°32' W 122°60'0 0.0
2016-Nov-27 20:30N 48°32' W 122°60'0 0.0
2016-Nov-27 19:33N 48°32' W 122°60'0 0.0
2016-Nov-27 18:33N 48°32' W 122°60'0 0.0
2016-Nov-27 17:33N 48°32' W 122°60'0 0.0
2016-Nov-27 16:33N 48°32' W 122°60'0 0.0
2016-Nov-27 15:33N 48°32' W 122°60'0 0.0
2016-Nov-27 14:33N 48°32' W 122°60'0 0.0
2016-Nov-27 13:33N 48°32' W 122°60'0 0.0
2016-Nov-27 12:33N 48°32' W 122°60'0 0.0
2016-Nov-27 11:33N 48°32' W 122°60'0 0.0
2016-Nov-27 10:27N 48°32' W 122°60'0 0.0
2016-Nov-27 09:33N 48°32' W 122°60'  
Track history (hours):
 
Tides and Currents Weather Stations Pressure Air Temp Water Temp Dewpoint Dewpoint Depression Visibility Wind Speed Wind Dir Waves Ship Positions

Pintail

Owner: Pintail Marine Services, Inc, Friday Harbor, WA. More information available from US FCC via Universal Licensing System and Coast Guard Vessel Documentation Center.

Last reported at 2016-Dec-07 09:32 UTC. Time now 2016-Dec-07 10:34 UTC.
Position N 48°32' W 122°60'.

Length 19 m.

Type: Towing. MMSI: 367460260.

Date/timePositionNaut miles runAvg speedWind from/ knotsBaromVisibWave heightAir tempDewpointWater temp
2016-Dec-07 09:32N 48°32' W 122°60'0 0.0
2016-Dec-07 08:29N 48°32' W 122°60'0 0.0
2016-Dec-07 07:32N 48°32' W 122°60'0 0.0
2016-Dec-07 06:32N 48°32' W 122°60'0 0.0
2016-Dec-07 05:32N 48°32' W 122°60'0 0.0
2016-Dec-07 04:32N 48°32' W 122°60'0 0.0
2016-Dec-07 03:32N 48°32' W 122°60'0 0.0
2016-Dec-07 02:32N 48°32' W 122°60'0 0.0
2016-Dec-07 01:32N 48°32' W 122°60'0 0.0
2016-Dec-07 00:29N 48°32' W 122°60'0 0.0
2016-Dec-06 23:32N 48°32' W 122°60'0 0.0
2016-Dec-06 22:29N 48°32' W 122°60'0 0.0
2016-Dec-06 21:29N 48°32' W 122°60'0 0.0
2016-Dec-06 20:11N 48°32' W 122°60'0 0.0
2016-Dec-06 18:33N 48°32' W 122°60'16 0.7
2016-Dec-05 19:33N 48°31' W 122°36'0 0.0
2016-Dec-05 18:29N 48°31' W 122°36'  
2016-Dec-01 19:24N 48°32' W 122°42'4 4.4
2016-Dec-01 18:28N 48°31' W 122°36'16 3.2
2016-Dec-01 13:33N 48°32' W 122°60'0 0.0
2016-Dec-01 12:33N 48°32' W 122°60'0 0.0
2016-Dec-01 11:33N 48°32' W 122°60'0 0.0
2016-Dec-01 10:33N 48°32' W 122°60'0 0.0
2016-Dec-01 09:33N 48°32' W 122°60'0 0.0
2016-Dec-01 08:30N 48°32' W 122°60'0 0.0
2016-Dec-01 07:33N 48°32' W 122°60'0 0.0
2016-Dec-01 06:30N 48°32' W 122°60'0 0.0
2016-Dec-01 05:30N 48°32' W 122°60'0 0.0
2016-Dec-01 04:30N 48°32' W 122°60'0 0.0
2016-Dec-01 03:33N 48°32' W 122°60'0 0.0
2016-Dec-01 02:33N 48°32' W 122°60'0 0.0
2016-Dec-01 01:30N 48°32' W 122°60'0 0.0
2016-Dec-01 00:33N 48°32' W 122°60'0 0.0
2016-Nov-30 23:33N 48°32' W 122°60'0 0.0
2016-Nov-30 22:33N 48°32' W 122°60'0 0.0
2016-Nov-30 21:30N 48°32' W 122°60'0 0.0
2016-Nov-30 20:30N 48°32' W 122°60'0 0.0
2016-Nov-30 19:30N 48°32' W 122°60'0 0.0
2016-Nov-30 18:27N 48°32' W 122°60'0 0.0
2016-Nov-30 17:33N 48°32' W 122°60'0 0.0
2016-Nov-30 16:33N 48°32' W 122°60'0 0.0
2016-Nov-30 15:33N 48°32' W 122°60'0 0.0
2016-Nov-30 14:33N 48°32' W 122°60'0 0.0
2016-Nov-30 13:33N 48°32' W 122°60'0 0.0
2016-Nov-30 12:30N 48°32' W 122°60'0 0.0
2016-Nov-30 11:24N 48°32' W 122°60'0 0.0
2016-Nov-30 10:33N 48°32' W 122°60'0 0.0
2016-Nov-30 09:33N 48°32' W 122°60'0 0.0
2016-Nov-30 08:33N 48°32' W 122°60'0 0.0
2016-Nov-30 07:30N 48°32' W 122°60'0 0.0
2016-Nov-30 06:33N 48°32' W 122°60'0 0.0
2016-Nov-30 05:33N 48°32' W 122°60'0 0.0
2016-Nov-30 04:33N 48°32' W 122°60'0 0.0
2016-Nov-30 03:33N 48°32' W 122°60'0 0.0
2016-Nov-30 02:33N 48°32' W 122°60'0 0.0
2016-Nov-30 01:33N 48°32' W 122°60'0 0.0
2016-Nov-30 00:33N 48°32' W 122°60'0 0.0
2016-Nov-29 23:33N 48°32' W 122°60'0 0.1
2016-Nov-29 22:33N 48°32' W 122°60'5 1.3
2016-Nov-29 18:30N 48°34' W 122°53'6 6.2
2016-Nov-29 17:31N 48°32' W 122°44'5 5.4
2016-Nov-29 16:33N 48°31' W 122°36'0 0.0
2016-Nov-29 15:31N 48°31' W 122°36'0 0.1
2016-Nov-29 14:30N 48°31' W 122°36'0 0.0
2016-Nov-29 13:30N 48°31' W 122°36'0 0.0
2016-Nov-29 12:30N 48°31' W 122°36'0 0.0
2016-Nov-29 11:30N 48°31' W 122°36'0 0.0
2016-Nov-29 10:30N 48°31' W 122°36'0 0.0
2016-Nov-29 09:30N 48°31' W 122°36'0 0.0
2016-Nov-29 08:30N 48°31' W 122°36'0 0.0
2016-Nov-29 07:30N 48°31' W 122°36'0 0.0
2016-Nov-29 06:30N 48°31' W 122°36'0 0.0
2016-Nov-29 05:33N 48°31' W 122°36'0 0.0
2016-Nov-29 04:30N 48°31' W 122°36'0 0.0
2016-Nov-29 03:30N 48°31' W 122°36'0 0.0
2016-Nov-29 02:30N 48°31' W 122°36'0 0.0
2016-Nov-29 01:30N 48°31' W 122°36'10 3.3
2016-Nov-28 22:26N 48°33' W 122°52'5 5.4
2016-Nov-28 21:33N 48°32' W 122°59'0 0.4
2016-Nov-28 20:33N 48°32' W 122°58'5 5.2
2016-Nov-28 19:33N 48°33' W 122°50'7 6.3
2016-Nov-28 18:22N 48°32' W 122°39'1 1.8
2016-Nov-28 17:33N 48°31' W 122°37'6 5.9
2016-Nov-28 16:31N 48°32' W 122°46'6 5.8
2016-Nov-28 15:32N 48°34' W 122°54'4 4.4
2016-Nov-28 14:33N 48°32' W 122°60'0 0.0
2016-Nov-28 13:33N 48°32' W 122°60'0 0.0
2016-Nov-28 12:30N 48°32' W 122°60'0 0.0
2016-Nov-28 11:33N 48°32' W 122°60'0 0.0
2016-Nov-28 10:33N 48°32' W 122°60'0 0.0
2016-Nov-28 09:33N 48°32' W 122°60'0 0.0
2016-Nov-28 08:30N 48°32' W 122°60'0 0.0
2016-Nov-28 07:33N 48°32' W 122°60'0 0.0
2016-Nov-28 06:31N 48°32' W 122°60'0 0.0
2016-Nov-28 05:34N 48°32' W 122°60'0 0.0
2016-Nov-28 04:31N 48°32' W 122°60'0 0.0
2016-Nov-28 03:31N 48°32' W 122°60'0 0.0
2016-Nov-28 02:28N 48°32' W 122°60'0 0.0
2016-Nov-28 01:33N 48°32' W 122°60'0 0.0
2016-Nov-28 00:33N 48°32' W 122°60'0 0.0
2016-Nov-27 23:33N 48°32' W 122°60'0 0.0
2016-Nov-27 22:30N 48°32' W 122°60'0 0.0
2016-Nov-27 21:33N 48°32' W 122°60'0 0.0
2016-Nov-27 20:30N 48°32' W 122°60'0 0.0
2016-Nov-27 19:33N 48°32' W 122°60'0 0.0
2016-Nov-27 18:33N 48°32' W 122°60'0 0.0
2016-Nov-27 17:33N 48°32' W 122°60'0 0.0
2016-Nov-27 16:33N 48°32' W 122°60'0 0.0
2016-Nov-27 15:33N 48°32' W 122°60'0 0.0
2016-Nov-27 14:33N 48°32' W 122°60'0 0.0
2016-Nov-27 13:33N 48°32' W 122°60'0 0.0
2016-Nov-27 12:33N 48°32' W 122°60'0 0.0
2016-Nov-27 11:33N 48°32' W 122°60'0 0.0
2016-Nov-27 10:27N 48°32' W 122°60'0 0.0
2016-Nov-27 09:33N 48°32' W 122°60'  

Dump ship's entire track history